createdAt,value
2023-01-12T00:01:39.393Z,100738.63
2023-01-12T00:04:06.405Z,100735.53
2023-01-12T00:06:33.737Z,100741.34
2023-01-12T00:09:03.230Z,100746.94
2023-01-12T00:11:30.332Z,100746.94
2023-01-12T00:13:57.788Z,100743.91
2023-01-12T00:16:43.592Z,100734.13
2023-01-12T00:19:12.712Z,100741.34
2023-01-12T00:21:58.767Z,100742.00
2023-01-12T00:24:37.074Z,100732.34
2023-01-12T00:27:07.154Z,100735.56
2023-01-12T00:29:34.360Z,100729.28
2023-01-12T00:32:01.043Z,100713.13
2023-01-12T00:34:29.566Z,100713.88
2023-01-12T00:36:56.793Z,100717.84
2023-01-12T00:39:23.187Z,100706.44
2023-01-12T00:42:07.944Z,100719.78
2023-01-12T00:44:52.714Z,100719.31
2023-01-12T00:47:19.661Z,100731.09
2023-01-12T00:49:46.183Z,100736.09
2023-01-12T00:52:24.971Z,100726.47
2023-01-12T00:54:56.127Z,100716.75
2023-01-12T00:57:22.473Z,100710.44
2023-01-12T00:59:48.792Z,100712.91
2023-01-12T01:02:15.255Z,100718.88
2023-01-12T01:07:32.158Z,100726.88
2023-01-12T01:09:58.450Z,100719.28
2023-01-12T01:12:24.752Z,100723.53
2023-01-12T01:14:53.373Z,100712.84
2023-01-12T01:17:19.708Z,100721.31
2023-01-12T01:19:48.241Z,100719.16
2023-01-12T01:22:15.133Z,100726.94
2023-01-12T01:24:41.765Z,100710.91
2023-01-12T01:27:08.080Z,100716.06
2023-01-12T01:29:34.402Z,100715.56
2023-01-12T01:32:00.726Z,100711.47
2023-01-12T01:34:27.094Z,100703.31
2023-01-12T01:36:53.404Z,100704.69
2023-01-12T01:39:19.747Z,100705.41
2023-01-12T01:41:47.951Z,100713.81
2023-01-12T01:44:29.629Z,100710.81
2023-01-12T01:47:08.263Z,100701.09
2023-01-12T01:49:48.472Z,100714.22
2023-01-12T01:52:19.277Z,100709.88
2023-01-12T01:55:08.604Z,100702.81
2023-01-12T01:58:15.558Z,100703.53
2023-01-12T02:00:43.511Z,100695.66
2023-01-12T02:03:11.426Z,100698.91
2023-01-12T02:05:41.713Z,100687.28
2023-01-12T02:08:17.867Z,100699.91
2023-01-12T02:10:45.301Z,100690.44
2023-01-12T02:13:30.147Z,100681.31
2023-01-12T02:16:22.806Z,100670.00
2023-01-12T02:18:57.757Z,100685.94
2023-01-12T02:21:47.333Z,100681.31
2023-01-12T02:24:27.723Z,100682.88
2023-01-12T02:27:32.395Z,100663.56
2023-01-12T02:30:43.024Z,100664.06
2023-01-12T02:33:23.990Z,100650.47
2023-01-12T02:36:11.193Z,100655.81
2023-01-12T02:38:53.352Z,100652.78
2023-01-12T02:42:02.129Z,100650.59
2023-01-12T02:44:55.307Z,100641.34
2023-01-12T02:47:56.992Z,100637.22
2023-01-12T02:50:35.297Z,100641.47
2023-01-12T02:53:07.833Z,100645.09
2023-01-12T02:55:34.998Z,100638.19
2023-01-12T02:58:03.609Z,100644.50
2023-01-12T03:00:30.482Z,100642.56
2023-01-12T03:02:56.915Z,100641.22
2023-01-12T03:05:23.278Z,100645.97
2023-01-12T03:07:58.812Z,100644.13
2023-01-12T03:10:34.173Z,100635.13
2023-01-12T03:13:06.267Z,100631.50
2023-01-12T03:15:35.080Z,100624.81
2023-01-12T03:18:13.916Z,100645.22
2023-01-12T03:20:54.048Z,100649.72
2023-01-12T03:23:27.508Z,100641.34
2023-01-12T03:25:57.442Z,100627.97
2023-01-12T03:28:28.832Z,100629.44
2023-01-12T03:31:05.420Z,100624.56
2023-01-12T03:33:31.871Z,100626.03
2023-01-12T03:36:24.598Z,100625.69
2023-01-12T03:39:16.693Z,100624.47
2023-01-12T03:41:53.038Z,100619.34
2023-01-12T03:44:28.642Z,100611.56
2023-01-12T03:47:01.532Z,100621.41
2023-01-12T03:49:32.388Z,100627.50
2023-01-12T03:52:01.891Z,100634.06
2023-01-12T03:54:31.288Z,100628.59
2023-01-12T03:56:59.050Z,100610.28
2023-01-12T03:59:25.528Z,100608.06
2023-01-12T04:01:52.182Z,100599.78
2023-01-12T04:04:20.007Z,100599.06
2023-01-12T04:06:46.343Z,100593.97
2023-01-12T04:09:12.650Z,100606.97
2023-01-12T04:11:57.449Z,100588.25
2023-01-12T04:14:23.843Z,100599.56
2023-01-12T04:16:50.148Z,100583.75
2023-01-12T04:19:16.501Z,100582.16
2023-01-12T04:22:02.260Z,100576.47
2023-01-12T04:24:28.553Z,100580.13
2023-01-12T04:26:54.973Z,100576.34
2023-01-12T04:29:21.271Z,100574.53
2023-01-12T04:31:47.681Z,100567.94
2023-01-12T04:34:14.058Z,100569.75
2023-01-12T04:36:42.733Z,100567.47
2023-01-12T04:39:09.115Z,100571.13
2023-01-12T04:41:35.531Z,100576.47
2023-01-12T04:44:02.065Z,100576.69
2023-01-12T04:46:28.384Z,100573.03
2023-01-12T04:48:54.896Z,100565.03
2023-01-12T04:51:21.246Z,100571.59
2023-01-12T04:53:51.389Z,100572.31
2023-01-12T04:56:17.930Z,100562.34
2023-01-12T04:58:44.275Z,100555.66
2023-01-12T05:01:19.171Z,100553.22
2023-01-12T05:03:45.898Z,100547.50
2023-01-12T05:06:12.279Z,100532.84
2023-01-12T05:08:57.733Z,100535.84
2023-01-12T05:11:28.664Z,100536.09
2023-01-12T05:13:56.090Z,100522.47
2023-01-12T05:16:22.893Z,100515.94
2023-01-12T05:18:49.394Z,100519.78
2023-01-12T05:21:18.008Z,100517.00
2023-01-12T05:23:45.326Z,100509.34
2023-01-12T05:26:12.368Z,100506.19
2023-01-12T05:28:38.721Z,100497.91
2023-01-12T05:31:10.927Z,100501.81
2023-01-12T05:33:39.448Z,100498.16
2023-01-12T05:36:07.925Z,100491.47
2023-01-12T05:38:34.535Z,100475.91
2023-01-12T05:41:01.945Z,100477.75
2023-01-12T05:43:47.579Z,100477.50
2023-01-12T05:46:14.414Z,100474.22
2023-01-12T05:48:41.189Z,100489.53
2023-01-12T05:51:12.361Z,100481.84
2023-01-12T05:53:40.031Z,100478.22
2023-01-12T05:56:09.717Z,100487.94
2023-01-12T05:58:36.706Z,100477.47
2023-01-12T06:01:07.865Z,100479.19
2023-01-12T06:03:35.169Z,100481.63
2023-01-12T06:06:01.581Z,100479.09
2023-01-12T06:08:27.913Z,100482.25
2023-01-12T06:10:54.207Z,100487.59
2023-01-12T06:13:39.233Z,100478.22
2023-01-12T06:16:09.040Z,100472.50
2023-01-12T06:18:36.261Z,100462.06
2023-01-12T06:21:04.065Z,100463.13
2023-01-12T06:23:35.281Z,100463.88
2023-01-12T06:26:09.070Z,100460.22
2023-01-12T06:28:38.271Z,100471.41
2023-01-12T06:31:08.677Z,100463.75
2023-01-12T06:33:35.829Z,100461.69
2023-01-12T06:36:03.386Z,100460.22
2023-01-12T06:38:31.877Z,100447.97
2023-01-12T06:41:02.448Z,100447.56
2023-01-12T06:43:28.901Z,100428.53
2023-01-12T06:45:55.242Z,100429.09
2023-01-12T06:48:23.650Z,100431.50
2023-01-12T06:50:49.946Z,100423.97
2023-01-12T06:53:16.286Z,100437.47
2023-01-12T06:55:48.636Z,100434.19
2023-01-12T06:58:15.215Z,100432.13
2023-01-12T07:00:41.547Z,100441.00
2023-01-12T07:03:17.104Z,100422.41
2023-01-12T07:05:43.596Z,100432.13
2023-01-12T07:08:10.949Z,100446.06
2023-01-12T07:10:37.425Z,100426.16
2023-01-12T07:13:03.734Z,100425.88
2023-01-12T07:15:30.060Z,100422.00
2023-01-12T07:17:57.261Z,100430.03
2023-01-12T07:20:24.821Z,100436.09
2023-01-12T07:22:51.532Z,100421.78
2023-01-12T07:25:17.830Z,100404.88
2023-01-12T07:27:55.943Z,100412.03
2023-01-12T07:30:23.452Z,100409.63
2023-01-12T07:32:50.005Z,100407.91
2023-01-12T07:35:17.493Z,100422.63
2023-01-12T07:37:51.381Z,100413.97
2023-01-12T07:40:18.083Z,100397.16
2023-01-12T07:42:44.502Z,100407.22
2023-01-12T07:45:11.538Z,100397.16
2023-01-12T07:47:37.882Z,100397.72
2023-01-12T07:50:04.717Z,100390.94
2023-01-12T07:52:31.033Z,100390.84
2023-01-12T07:54:58.144Z,100394.09
2023-01-12T07:57:24.461Z,100399.84
2023-01-12T07:59:50.755Z,100396.31
2023-01-12T08:02:17.280Z,100386.88
2023-01-12T08:04:44.313Z,100383.84
2023-01-12T08:07:11.186Z,100383.13
2023-01-12T08:09:37.657Z,100380.38
2023-01-12T08:12:05.916Z,100384.97
2023-01-12T08:14:39.164Z,100395.66
2023-01-12T08:17:17.570Z,100380.78
2023-01-12T08:19:50.732Z,100391.75
2023-01-12T08:22:22.784Z,100395.25
2023-01-12T08:25:00.960Z,100398.78
2023-01-12T08:27:30.889Z,100401.72
2023-01-12T08:30:02.534Z,100393.19
2023-01-12T08:32:29.060Z,100397.16
2023-01-12T08:35:01.768Z,100404.44
2023-01-12T08:37:29.636Z,100408.56
2023-01-12T08:39:56.359Z,100410.41
2023-01-12T08:42:28.042Z,100397.25
2023-01-12T08:44:55.646Z,100409.41
2023-01-12T08:47:28.251Z,100393.38
2023-01-12T08:49:55.303Z,100392.78
2023-01-12T08:52:21.980Z,100413.06
2023-01-12T08:54:49.567Z,100416.06
2023-01-12T08:57:19.738Z,100419.53
2023-01-12T08:59:46.256Z,100413.78
2023-01-12T09:02:14.019Z,100411.94
2023-01-12T09:04:41.362Z,100416.84
2023-01-12T09:07:09.689Z,100417.91
2023-01-12T09:09:36.178Z,100410.13
2023-01-12T09:12:03.122Z,100415.59
2023-01-12T09:14:29.701Z,100394.34
2023-01-12T09:16:59.012Z,100405.75
2023-01-12T09:19:25.383Z,100404.91
2023-01-12T09:21:51.684Z,100387.78
2023-01-12T09:24:18.065Z,100414.16
2023-01-12T09:26:46.032Z,100410.38
2023-01-12T09:29:14.037Z,100408.19
2023-01-12T09:31:43.580Z,100406.59
2023-01-12T09:34:10.395Z,100413.41
2023-01-12T09:36:39.352Z,100407.34
2023-01-12T09:39:09.894Z,100407.44
2023-01-12T09:42:05.495Z,100414.69
2023-01-12T09:44:59.651Z,100402.56
2023-01-12T09:47:29.036Z,100420.66
2023-01-12T09:50:10.921Z,100414.66
2023-01-12T09:52:49.556Z,100414.53
2023-01-12T09:55:21.781Z,100409.31
2023-01-12T09:58:23.634Z,100413.06
2023-01-12T10:00:51.926Z,100417.34
2023-01-12T10:03:35.565Z,100413.19
2023-01-12T10:06:02.357Z,100407.94
2023-01-12T10:08:41.953Z,100405.72
2023-01-12T10:11:25.606Z,100409.72
2023-01-12T10:14:19.819Z,100397.19
2023-01-12T10:16:59.870Z,100397.91
2023-01-12T10:19:54.282Z,100401.44
2023-01-12T10:22:37.919Z,100397.78
2023-01-12T10:25:34.971Z,100409.94
2023-01-12T10:28:16.972Z,100408.94
2023-01-12T10:30:44.018Z,100410.84
2023-01-12T10:33:19.353Z,100412.81
2023-01-12T10:36:02.407Z,100405.84
2023-01-12T10:38:35.988Z,100412.81
2023-01-12T10:41:23.790Z,100405.16
2023-01-12T10:43:56.083Z,100403.19
2023-01-12T10:46:24.183Z,100418.06
2023-01-12T10:48:55.506Z,100403.31
2023-01-12T10:51:24.941Z,100409.66
2023-01-12T10:53:56.746Z,100412.91
2023-01-12T10:56:36.176Z,100410.91
2023-01-12T10:59:07.042Z,100405.66
2023-01-12T11:01:43.567Z,100400.91
2023-01-12T11:04:14.417Z,100410.16
2023-01-12T11:06:54.572Z,100400.31
2023-01-12T11:09:26.655Z,100400.91
2023-01-12T11:11:55.571Z,100385.84
2023-01-12T11:14:28.850Z,100399.16
2023-01-12T11:17:05.752Z,100404.34
2023-01-12T11:19:39.457Z,100392.66
2023-01-12T11:22:27.748Z,100390.00
2023-01-12T11:25:21.080Z,100394.25
2023-01-12T11:28:18.189Z,100389.34
2023-01-12T11:30:56.810Z,100379.03
2023-01-12T11:33:42.704Z,100368.31
2023-01-12T11:36:15.660Z,100354.34
2023-01-12T11:38:48.253Z,100370.03
2023-01-12T11:41:34.107Z,100377.78
2023-01-12T11:44:25.513Z,100368.06
2023-01-12T11:46:59.431Z,100373.13
2023-01-12T11:49:31.815Z,100360.72
2023-01-12T11:51:59.257Z,100373.97
2023-01-12T11:54:27.890Z,100368.63
2023-01-12T11:57:19.092Z,100368.50
2023-01-12T12:00:07.555Z,100369.88
2023-01-12T12:02:41.033Z,100360.47
2023-01-12T12:05:32.102Z,100364.53
2023-01-12T12:08:12.610Z,100364.25
2023-01-12T12:11:00.893Z,100361.31
2023-01-12T12:14:02.375Z,100361.44
2023-01-12T12:16:47.141Z,100352.44
2023-01-12T12:19:51.395Z,100349.78
2023-01-12T12:22:39.040Z,100342.44
2023-01-12T12:25:30.042Z,100346.41
2023-01-12T12:28:21.207Z,100337.94
2023-01-12T12:31:06.758Z,100335.69
2023-01-12T12:33:41.058Z,100341.91
2023-01-12T12:36:31.819Z,100335.28
2023-01-12T12:39:17.048Z,100334.00
2023-01-12T12:42:15.785Z,100328.78
2023-01-12T12:45:06.177Z,100324.25
2023-01-12T12:47:43.851Z,100319.88
2023-01-12T12:50:20.009Z,100312.56
2023-01-12T12:52:51.909Z,100315.97
2023-01-12T12:55:18.582Z,100314.53
2023-01-12T12:58:02.311Z,100322.72
2023-01-12T13:00:32.710Z,100314.81
2023-01-12T13:02:59.841Z,100311.00
2023-01-12T13:05:42.621Z,100303.97
2023-01-12T13:08:18.477Z,100316.81
2023-01-12T13:10:50.772Z,100303.44
2023-01-12T13:13:32.781Z,100306.22
2023-01-12T13:16:11.318Z,100303.53
2023-01-12T13:19:06.250Z,100302.03
2023-01-12T13:21:57.739Z,100311.19
2023-01-12T13:24:40.951Z,100297.41
2023-01-12T13:27:45.146Z,100301.63
2023-01-12T13:30:26.873Z,100287.53
2023-01-12T13:32:53.172Z,100293.00
2023-01-12T13:35:46.437Z,100289.22
2023-01-12T13:38:32.114Z,100292.31
2023-01-12T13:41:07.735Z,100280.22
2023-01-12T13:43:40.721Z,100293.06
2023-01-12T13:46:17.170Z,100280.63
2023-01-12T13:48:47.755Z,100277.84
2023-01-12T13:51:23.681Z,100279.94
2023-01-12T13:54:10.438Z,100281.63
2023-01-12T13:56:37.239Z,100286.16
2023-01-12T13:59:07.593Z,100271.34
2023-01-12T14:01:38.205Z,100278.41
2023-01-12T14:04:13.393Z,100288.44
2023-01-12T14:06:51.813Z,100290.25
2023-01-12T14:09:45.306Z,100290.13
2023-01-12T14:12:23.428Z,100289.28
2023-01-12T14:15:17.703Z,100293.25
2023-01-12T14:17:49.870Z,100307.59
2023-01-12T14:20:20.122Z,100302.25
2023-01-12T14:22:46.624Z,100304.91
2023-01-12T14:25:25.297Z,100306.50
2023-01-12T14:27:53.902Z,100305.22
2023-01-12T14:30:22.917Z,100303.13
2023-01-12T14:32:50.738Z,100312.97
2023-01-12T14:35:25.846Z,100319.31
2023-01-12T14:37:58.347Z,100308.16
2023-01-12T14:40:33.459Z,100312.09
2023-01-12T14:43:20.861Z,100303.91
2023-01-12T14:46:17.444Z,100311.00
2023-01-12T14:48:58.358Z,100301.69
2023-01-12T14:51:37.922Z,100311.09
2023-01-12T14:54:07.252Z,100306.47
2023-01-12T14:56:50.176Z,100295.16
2023-01-12T14:59:22.782Z,100296.47
2023-01-12T15:01:49.995Z,100292.78
2023-01-12T15:04:20.443Z,100299.44
2023-01-12T15:06:47.048Z,100283.06
2023-01-12T15:09:29.473Z,100275.84
2023-01-12T15:11:56.378Z,100277.53
2023-01-12T15:14:26.927Z,100278.53
2023-01-12T15:17:12.980Z,100279.66
2023-01-12T15:19:58.793Z,100288.66
2023-01-12T15:22:46.183Z,100283.44
2023-01-12T15:25:36.171Z,100291.47
2023-01-12T15:28:04.747Z,100290.78
2023-01-12T15:30:33.669Z,100295.16
2023-01-12T15:33:00.081Z,100297.44
2023-01-12T15:35:29.785Z,100297.13
2023-01-12T15:37:57.757Z,100299.66
2023-01-12T15:40:25.492Z,100296.41
2023-01-12T15:42:53.373Z,100291.75
2023-01-12T15:45:25.975Z,100292.06
2023-01-12T15:47:52.294Z,100290.06
2023-01-12T15:50:18.757Z,100294.00
2023-01-12T15:52:45.128Z,100285.94
2023-01-12T15:55:19.523Z,100298.50
2023-01-12T15:57:47.321Z,100292.59
2023-01-12T16:00:15.825Z,100290.06
2023-01-12T16:02:45.269Z,100288.09
2023-01-12T16:05:13.232Z,100284.97
2023-01-12T16:07:39.581Z,100293.00
2023-01-12T16:10:06.555Z,100291.31
2023-01-12T16:12:32.878Z,100280.03
2023-01-12T16:14:59.780Z,100296.25
2023-01-12T16:17:26.477Z,100298.19
2023-01-12T16:19:52.989Z,100292.84
2023-01-12T16:22:21.844Z,100300.88
2023-01-12T16:24:49.216Z,100290.59
2023-01-12T16:27:16.090Z,100303.00
2023-01-12T16:29:42.545Z,100295.50
2023-01-12T16:32:09.409Z,100271.97
2023-01-12T16:34:36.321Z,100298.19
2023-01-12T16:37:03.361Z,100273.66
2023-01-12T16:39:30.364Z,100285.06
2023-01-12T16:42:05.962Z,100280.19
2023-01-12T16:44:37.109Z,100278.50
2023-01-12T16:47:14.537Z,100270.56
2023-01-12T16:49:41.701Z,100262.09
2023-01-12T16:52:10.947Z,100255.44
2023-01-12T16:54:42.279Z,100259.56
2023-01-12T16:57:10.093Z,100258.13
2023-01-12T16:59:36.517Z,100255.75
2023-01-12T17:02:07.715Z,100257.44
2023-01-12T17:04:35.671Z,100255.06
2023-01-12T17:07:02.692Z,100259.28
2023-01-12T17:09:29.132Z,100253.53
2023-01-12T17:11:55.818Z,100247.59
2023-01-12T17:14:25.435Z,100251.97
2023-01-12T17:16:56.097Z,100249.88
2023-01-12T17:19:24.684Z,100248.03
2023-01-12T17:21:51.761Z,100247.19
2023-01-12T17:24:19.626Z,100235.75
2023-01-12T17:26:49.557Z,100243.38
2023-01-12T17:29:16.017Z,100244.38
2023-01-12T17:31:42.796Z,100233.91
2023-01-12T17:34:12.015Z,100244.22
2023-01-12T17:36:38.982Z,100246.06
2023-01-12T17:39:05.611Z,100239.72
2023-01-12T17:41:50.692Z,100249.44
2023-01-12T17:44:17.355Z,100253.09
2023-01-12T17:46:44.623Z,100239.28
2023-01-12T17:49:11.904Z,100252.72
2023-01-12T17:51:39.957Z,100247.75
2023-01-12T17:54:10.450Z,100251.41
2023-01-12T17:56:38.042Z,100257.34
2023-01-12T17:59:05.956Z,100252.25
2023-01-12T18:01:35.260Z,100243.25
2023-01-12T18:04:02.353Z,100237.03
2023-01-12T18:06:28.793Z,100236.34
2023-01-12T18:08:56.679Z,100237.88
2023-01-12T18:11:23.565Z,100230.44
2023-01-12T18:13:49.886Z,100237.19
2023-01-12T18:16:17.134Z,100239.56
2023-01-12T18:18:44.014Z,100242.09
2023-01-12T18:21:13.242Z,100239.84
2023-01-12T18:23:39.775Z,100240.16
2023-01-12T18:26:12.170Z,100232.97
2023-01-12T18:28:38.562Z,100228.47
2023-01-12T18:31:26.748Z,100232.13
2023-01-12T18:34:00.789Z,100233.38
2023-01-12T18:36:27.145Z,100229.47
2023-01-12T18:38:53.968Z,100214.63
2023-01-12T18:41:40.424Z,100213.78
2023-01-12T18:44:06.848Z,100217.75
2023-01-12T18:46:53.453Z,100231.41
2023-01-12T18:49:24.652Z,100227.34
2023-01-12T18:52:10.244Z,100218.75
2023-01-12T18:54:47.439Z,100222.53
2023-01-12T18:57:19.824Z,100221.00
2023-01-12T18:59:47.681Z,100218.47
2023-01-12T19:02:15.397Z,100206.34
2023-01-12T19:04:51.075Z,100210.88
2023-01-12T19:07:28.328Z,100215.09
2023-01-12T19:09:55.096Z,100210.88
2023-01-12T19:12:21.713Z,100202.69
2023-01-12T19:15:06.663Z,100214.25
2023-01-12T19:17:33.627Z,100210.88
2023-01-12T19:20:03.154Z,100208.88
2023-01-12T19:22:48.370Z,100194.34
2023-01-12T19:25:36.819Z,100204.78
2023-01-12T19:28:22.909Z,100204.78
2023-01-12T19:30:49.163Z,100189.69
2023-01-12T19:33:16.815Z,100189.97
2023-01-12T19:35:45.186Z,100189.28
2023-01-12T19:38:13.258Z,100192.81
2023-01-12T19:40:57.290Z,100184.91
2023-01-12T19:43:26.993Z,100174.06
2023-01-12T19:45:57.587Z,100183.63
2023-01-12T19:48:25.783Z,100175.72
2023-01-12T19:50:53.328Z,100176.44
2023-01-12T19:53:25.710Z,100178.81
2023-01-12T19:55:52.715Z,100181.50
2023-01-12T19:58:21.879Z,100177.13
2023-01-12T20:00:49.376Z,100177.56
2023-01-12T20:03:18.902Z,100177.56
2023-01-12T20:05:47.476Z,100173.22
2023-01-12T20:08:14.993Z,100167.00
2023-01-12T20:10:41.575Z,100161.50
2023-01-12T20:13:08.849Z,100162.06
2023-01-12T20:15:37.926Z,100155.31
2023-01-12T20:18:04.280Z,100150.50
2023-01-12T20:20:31.307Z,100146.97
2023-01-12T20:22:58.116Z,100148.25
2023-01-12T20:25:27.937Z,100143.44
2023-01-12T20:27:54.958Z,100143.75
2023-01-12T20:30:36.889Z,100153.03
2023-01-12T20:33:06.432Z,100153.47
2023-01-12T20:35:34.794Z,100147.41
2023-01-12T20:38:03.653Z,100155.84
2023-01-12T20:40:29.991Z,100154.16
2023-01-12T20:42:56.349Z,100152.78
2023-01-12T20:45:22.750Z,100147.41
2023-01-12T20:47:49.088Z,100145.84
2023-01-12T20:50:17.825Z,100145.28
2023-01-12T20:52:44.206Z,100145.00
2023-01-12T20:55:10.497Z,100152.47
2023-01-12T20:57:40.666Z,100143.75
2023-01-12T21:00:08.001Z,100137.41
2023-01-12T21:02:35.774Z,100134.72
2023-01-12T21:05:02.417Z,100135.56
2023-01-12T21:07:28.782Z,100144.16
2023-01-12T21:09:55.093Z,100135.84
2023-01-12T21:12:21.463Z,100135.84
2023-01-12T21:14:47.805Z,100127.97
2023-01-12T21:17:16.538Z,100127.81
2023-01-12T21:19:42.812Z,100131.19
2023-01-12T21:22:09.155Z,100132.59
2023-01-12T21:24:35.514Z,100143.59
2023-01-12T21:27:01.842Z,100136.97
2023-01-12T21:29:28.169Z,100141.75
2023-01-12T21:31:54.567Z,100133.03
2023-01-12T21:34:20.979Z,100139.38
2023-01-12T21:36:47.394Z,100132.31
2023-01-12T21:39:13.739Z,100130.34
2023-01-12T21:41:58.474Z,100133.28
2023-01-12T21:44:24.784Z,100121.88
2023-01-12T21:46:51.081Z,100119.19
2023-01-12T21:49:17.448Z,100112.28
2023-01-12T21:51:43.732Z,100113.13
2023-01-12T21:54:10.039Z,100122.88
2023-01-12T21:56:36.475Z,100110.59
2023-01-12T21:59:02.810Z,100101.84
2023-01-12T22:01:29.281Z,100094.94
2023-01-12T22:03:57.128Z,100096.09
2023-01-12T22:06:23.591Z,100090.72
2023-01-12T22:08:50.005Z,100092.13
2023-01-12T22:11:16.851Z,100077.34
2023-01-12T22:13:43.653Z,100094.38
2023-01-12T22:16:12.686Z,100081.56
2023-01-12T22:18:42.874Z,100086.75
2023-01-12T22:21:09.885Z,100090.13
2023-01-12T22:23:37.467Z,100093.50
2023-01-12T22:26:06.379Z,100081.00
2023-01-12T22:28:34.225Z,100079.16
2023-01-12T22:31:27.128Z,100080.56
2023-01-12T22:34:03.694Z,100086.63
2023-01-12T22:36:34.635Z,100072.69
2023-01-12T22:39:01.273Z,100077.75
2023-01-12T22:41:27.551Z,100067.72
2023-01-12T22:43:54.603Z,100069.56
2023-01-12T22:46:26.502Z,100079.44
2023-01-12T22:48:57.593Z,100075.34
2023-01-12T22:51:25.570Z,100073.22
2023-01-12T22:53:52.836Z,100073.53
2023-01-12T22:56:19.980Z,100063.50
2023-01-12T22:58:47.653Z,100071.84
2023-01-12T23:01:14.924Z,100065.78
2023-01-12T23:03:41.701Z,100076.63
2023-01-12T23:06:12.051Z,100054.91
2023-01-12T23:08:38.623Z,100058.31
2023-01-12T23:11:11.513Z,100075.22
2023-01-12T23:13:38.084Z,100062.25
2023-01-12T23:16:06.893Z,100073.97
2023-01-12T23:18:34.786Z,100071.13
2023-01-12T23:21:09.685Z,100064.34
2023-01-12T23:23:36.372Z,100068.16
2023-01-12T23:26:04.258Z,100066.47
2023-01-12T23:28:30.720Z,100048.56
2023-01-12T23:31:04.576Z,100070.41
2023-01-12T23:33:31.102Z,100056.06
2023-01-12T23:36:02.052Z,100058.00
2023-01-12T23:38:28.367Z,100050.41
2023-01-12T23:40:54.619Z,100060.13
2023-01-12T23:43:20.953Z,100060.00
2023-01-12T23:45:47.292Z,100056.03
2023-01-12T23:48:13.605Z,100058.59
2023-01-12T23:50:39.917Z,100062.38
2023-01-12T23:53:06.269Z,100061.53
2023-01-12T23:55:32.557Z,100058.59
2023-01-12T23:57:58.863Z,100057.47
